createdAt,value
2018-07-25T00:01:38.799Z,6.93
2018-07-25T00:04:06.967Z,6.50
2018-07-25T00:06:35.059Z,8.53
2018-07-25T00:09:06.109Z,7.50
2018-07-25T00:11:34.271Z,7.43
2018-07-25T00:14:02.397Z,7.90
2018-07-25T00:16:30.518Z,7.60
2018-07-25T00:18:58.661Z,7.23
2018-07-25T00:21:27.075Z,7.23
2018-07-25T00:23:55.181Z,7.43
2018-07-25T00:26:23.297Z,7.10
2018-07-25T00:28:51.728Z,7.27
2018-07-25T00:31:19.804Z,6.83
2018-07-25T00:33:47.933Z,8.20
2018-07-25T00:36:16.039Z,7.80
2018-07-25T00:38:44.162Z,7.90
2018-07-25T00:41:12.266Z,8.63
2018-07-25T00:43:40.374Z,7.60
2018-07-25T00:46:08.524Z,7.93
2018-07-25T00:48:36.666Z,7.57
2018-07-25T00:51:04.755Z,8.17
2018-07-25T00:53:32.899Z,8.13
2018-07-25T00:56:01.009Z,8.23
2018-07-25T00:58:29.158Z,8.33
2018-07-25T01:00:57.272Z,8.43
2018-07-25T01:03:25.403Z,8.63
2018-07-25T01:05:53.485Z,9.13
2018-07-25T01:08:21.609Z,8.70
2018-07-25T01:10:49.735Z,8.73
2018-07-25T01:13:17.877Z,8.77
2018-07-25T01:15:45.986Z,9.47
2018-07-25T01:18:14.073Z,8.93
2018-07-25T01:20:42.793Z,8.73
2018-07-25T01:23:10.892Z,8.83
2018-07-25T01:25:38.978Z,9.00
2018-07-25T01:28:07.077Z,9.33
2018-07-25T01:30:35.193Z,9.67
2018-07-25T01:33:03.322Z,8.47
2018-07-25T01:35:31.437Z,8.73
2018-07-25T01:37:59.545Z,8.80
2018-07-25T01:40:27.686Z,10.37
2018-07-25T01:42:55.790Z,8.60
2018-07-25T01:45:23.879Z,9.13
2018-07-25T01:47:51.970Z,8.87
2018-07-25T01:50:20.087Z,9.27
2018-07-25T01:52:48.199Z,9.63
2018-07-25T01:55:16.313Z,9.33
2018-07-25T01:57:44.418Z,9.20
2018-07-25T02:00:12.508Z,9.90
2018-07-25T02:02:40.661Z,10.40
2018-07-25T02:05:08.794Z,10.00
2018-07-25T02:07:36.913Z,10.03
2018-07-25T02:10:05.869Z,9.53
2018-07-25T02:12:34.203Z,9.60
2018-07-25T02:15:02.320Z,9.70
2018-07-25T02:17:30.401Z,10.50
2018-07-25T02:19:58.594Z,9.53
2018-07-25T02:22:26.704Z,10.23
2018-07-25T02:24:54.824Z,10.53
2018-07-25T02:27:22.918Z,10.27
2018-07-25T02:29:51.101Z,10.50
2018-07-25T02:32:19.210Z,11.07
2018-07-25T02:34:47.311Z,10.57
2018-07-25T02:37:15.454Z,10.77
2018-07-25T02:39:43.782Z,10.90
2018-07-25T02:42:11.914Z,10.87
2018-07-25T02:44:40.171Z,10.80
2018-07-25T02:47:08.330Z,10.13
2018-07-25T02:49:36.494Z,10.97
2018-07-25T02:52:04.575Z,10.10
2018-07-25T02:54:32.722Z,10.77
2018-07-25T02:57:00.725Z,10.57
2018-07-25T02:59:28.749Z,11.47
2018-07-25T03:01:56.868Z,11.33
2018-07-25T03:04:24.962Z,10.77
2018-07-25T03:06:53.073Z,11.17
2018-07-25T03:09:21.187Z,11.83
2018-07-25T03:11:49.266Z,11.27
2018-07-25T03:14:17.343Z,11.97
2018-07-25T03:16:45.513Z,12.00
2018-07-25T03:19:13.563Z,11.87
2018-07-25T03:21:41.708Z,12.00
2018-07-25T03:24:09.841Z,12.20
2018-07-25T03:26:37.952Z,12.10
2018-07-25T03:29:06.080Z,12.57
2018-07-25T03:31:34.241Z,11.43
2018-07-25T03:34:02.311Z,12.00
2018-07-25T03:36:30.452Z,11.67
2018-07-25T03:39:05.149Z,11.27
2018-07-25T03:41:33.297Z,11.20
2018-07-25T03:44:01.428Z,10.90
2018-07-25T03:46:29.543Z,11.33
2018-07-25T03:48:57.641Z,11.43
2018-07-25T03:51:25.894Z,10.90
2018-07-25T03:53:54.077Z,11.97
2018-07-25T03:56:22.205Z,11.03
2018-07-25T03:58:50.322Z,11.07
2018-07-25T04:01:18.446Z,11.37
2018-07-25T04:03:46.610Z,11.83
2018-07-25T04:06:14.718Z,11.90
2018-07-25T04:08:42.838Z,13.73
2018-07-25T04:11:10.995Z,15.23
2018-07-25T04:13:39.101Z,12.20
2018-07-25T04:16:07.277Z,12.03
2018-07-25T04:18:35.434Z,11.50
2018-07-25T04:21:03.551Z,11.77
2018-07-25T04:23:31.658Z,11.40
2018-07-25T04:26:00.386Z,11.33
2018-07-25T04:28:28.481Z,11.67
2018-07-25T04:30:56.633Z,10.43
2018-07-25T04:33:24.766Z,11.43
2018-07-25T04:35:52.866Z,11.00
2018-07-25T04:38:20.977Z,11.30
2018-07-25T04:40:49.122Z,10.30
2018-07-25T04:43:17.225Z,11.03
2018-07-25T04:45:45.323Z,11.43
2018-07-25T04:48:13.458Z,11.57
2018-07-25T04:50:41.569Z,11.13
2018-07-25T04:53:09.670Z,11.77
2018-07-25T04:55:37.805Z,10.87
2018-07-25T04:58:05.986Z,10.07
2018-07-25T05:00:34.090Z,10.53
2018-07-25T05:03:02.263Z,10.67
2018-07-25T05:05:30.401Z,10.93
2018-07-25T05:07:58.546Z,10.40
2018-07-25T05:10:26.880Z,9.63
